This is the latest recevied weather packets stored in our database for station/object EA8AYY-10. If no packets are shown the sender has not sent any weather packets the latest 10 day(s).
| Time | Temp. | Humidity | Pressure | Rain* | Wind** | Luminosity | Snow |
|---|---|---|---|---|---|---|---|
| 1787771834 | 24.44° C | 56% | 1022.7 hPa | - | - | - | - |
| 1787770934 | 25° C | 53% | 1022.6 hPa | - | - | - | - |
| 1787770034 | 26.11° C | 50% | 1022.6 hPa | - | - | - | - |
| 1787769133 | 26.11° C | 50% | 1022.6 hPa | - | - | - | - |
| 1787768233 | 26.11° C | 53% | 1022.6 hPa | - | - | - | - |
| 1787767333 | 25.56° C | 53% | 1022.5 hPa | - | - | - | - |
| 1787766433 | 26.11° C | 53% | 1022.5 hPa | - | - | - | - |
| 1787765533 | 30° C | 46% | 1022.4 hPa | - | - | - | - |
| 1787764628 | 26.67° C | 51% | 1022.4 hPa | - | - | - | - |
| 1787763726 | 26.67° C | 51% | 1022.4 hPa | - | - | - | - |
| 1787762826 | 29.44° C | 47% | 1022.3 hPa | - | - | - | - |
| 1787761923 | 27.22° C | 48% | 1022.3 hPa | - | - | - | - |
| 1787761023 | 27.78° C | 47% | 1022.3 hPa | - | - | - | - |
| 1787760123 | 27.78° C | 45% | 1022.3 hPa | - | - | - | - |
| 1787759230 | 28.33° C | 43% | 1022.3 hPa | - | - | - | - |
| 1787758330 | 32.78° C | 36% | 1022.3 hPa | - | - | - | - |
| 1787757428 | 31.11° C | 37% | 1022.4 hPa | - | - | - | - |
| 1787756528 | 33.89° C | 32% | 1022.5 hPa | - | - | - | - |
| 1787755628 | 40° C | 25% | 1022.7 hPa | - | - | - | - |
| 1787754723 | 42.22° C | 23% | 1023 hPa | - | - | - | - |
| 1787753823 | 46.11° C | 20% | 1023 hPa | - | - | - | - |
| 1787752922 | 44.44° C | 23% | 1023.1 hPa | - | - | - | - |
| 1787752022 | 44.44° C | 23% | 1023.1 hPa | - | - | - | - |
| 1787751122 | 43.33° C | 25% | 1023.4 hPa | - | - | - | - |
| 1787750222 | 40.56° C | 29% | 1023.5 hPa | - | - | - | - |
* Rain since midnight (hover to see other rain measurements)
** Current wind speed in m/s (hover to see current wind gust speed)